createdAt,value
2023-02-25T00:01:05.721Z,98866.75
2023-02-25T00:03:33.862Z,98862.41
2023-02-25T00:06:03.788Z,98867.00
2023-02-25T00:08:31.502Z,98860.22
2023-02-25T00:10:59.609Z,98859.41
2023-02-25T00:13:27.276Z,98855.88
2023-02-25T00:15:54.972Z,98858.56
2023-02-25T00:18:22.638Z,98852.13
2023-02-25T00:20:50.369Z,98843.47
2023-02-25T00:23:19.367Z,98842.16
2023-02-25T00:25:47.020Z,98837.59
2023-02-25T00:28:14.762Z,98839.47
2023-02-25T00:30:42.666Z,98842.97
2023-02-25T00:33:11.736Z,98832.19
2023-02-25T00:35:39.932Z,98832.19
2023-02-25T00:38:15.754Z,98831.38
2023-02-25T00:40:45.334Z,98832.19
2023-02-25T00:43:13.034Z,98829.50
2023-02-25T00:45:41.123Z,98820.59
2023-02-25T00:48:08.794Z,98830.56
2023-02-25T00:50:36.413Z,98816.53
2023-02-25T00:53:04.048Z,98803.03
2023-02-25T00:55:33.437Z,98808.66
2023-02-25T00:58:02.790Z,98806.25
2023-02-25T01:00:35.923Z,98800.03
2023-02-25T01:03:05.835Z,98802.72
2023-02-25T01:05:33.494Z,98792.19
2023-02-25T01:08:01.227Z,98790.56
2023-02-25T01:10:29.115Z,98787.88
2023-02-25T01:12:56.793Z,98783.53
2023-02-25T01:15:25.847Z,98786.22
2023-02-25T01:17:53.570Z,98787.28
2023-02-25T01:20:22.502Z,98781.91
2023-02-25T01:22:50.212Z,98771.34
2023-02-25T01:25:18.607Z,98771.59
2023-02-25T01:27:46.300Z,98764.09
2023-02-25T01:30:14.252Z,98768.44
2023-02-25T01:32:43.460Z,98769.25
2023-02-25T01:35:11.214Z,98761.97
2023-02-25T01:37:38.841Z,98752.00
2023-02-25T01:40:07.103Z,98742.06
2023-02-25T01:42:34.848Z,98743.91
2023-02-25T01:45:23.602Z,98754.69
2023-02-25T01:47:53.262Z,98756.56
2023-02-25T01:50:20.999Z,98756.56
2023-02-25T01:52:48.765Z,98753.06
2023-02-25T01:55:16.376Z,98757.66
2023-02-25T01:57:44.563Z,98755.75
2023-02-25T02:00:16.117Z,98749.56
2023-02-25T02:02:44.718Z,98757.66
2023-02-25T02:05:14.570Z,98747.34
2023-02-25T02:07:42.349Z,98755.44
2023-02-25T02:10:10.612Z,98752.16
2023-02-25T02:12:39.449Z,98750.53
2023-02-25T02:15:07.799Z,98730.03
2023-02-25T02:17:36.835Z,98735.41
2023-02-25T02:20:13.148Z,98731.09
2023-02-25T02:22:45.282Z,98726.53
2023-02-25T02:25:40.034Z,98718.69
2023-02-25T02:28:37.665Z,98711.66
2023-02-25T02:31:21.713Z,98714.38
2023-02-25T02:33:51.134Z,98703.81
2023-02-25T02:36:20.852Z,98705.47
2023-02-25T02:38:50.010Z,98705.19
2023-02-25T02:41:18.883Z,98692.56
2023-02-25T02:43:47.110Z,98693.38
2023-02-25T02:46:16.213Z,98695.00
2023-02-25T02:48:45.874Z,98678.84
2023-02-25T02:51:15.473Z,98679.63
2023-02-25T02:53:43.611Z,98680.47
2023-02-25T02:56:13.011Z,98678.84
2023-02-25T02:58:41.990Z,98689.59
2023-02-25T03:01:10.727Z,98684.22
2023-02-25T03:03:39.769Z,98688.00
2023-02-25T03:06:09.991Z,98681.78
2023-02-25T03:08:39.641Z,98678.53
2023-02-25T03:11:07.318Z,98683.91
2023-02-25T03:13:34.959Z,98680.66
2023-02-25T03:16:02.607Z,98686.84
2023-02-25T03:18:32.512Z,98693.31
2023-02-25T03:21:00.533Z,98684.66
2023-02-25T03:23:29.928Z,98681.16
2023-02-25T03:25:59.654Z,98693.00
2023-02-25T03:28:27.926Z,98699.19
2023-02-25T03:30:58.460Z,98709.97
2023-02-25T03:33:28.073Z,98707.53
2023-02-25T03:35:55.818Z,98698.63
2023-02-25T03:38:24.032Z,98702.41
2023-02-25T03:40:53.053Z,98688.94
2023-02-25T03:43:22.777Z,98686.22
2023-02-25T03:45:50.557Z,98684.59
2023-02-25T03:48:19.260Z,98686.22
2023-02-25T03:50:48.413Z,98670.88
2023-02-25T03:53:16.106Z,98663.38
2023-02-25T03:55:43.839Z,98664.97
2023-02-25T03:58:14.706Z,98660.41
2023-02-25T04:00:42.448Z,98660.41
2023-02-25T04:03:10.747Z,98657.72
2023-02-25T04:05:38.396Z,98653.13
2023-02-25T04:08:06.763Z,98662.03
2023-02-25T04:10:34.582Z,98644.25
2023-02-25T04:13:02.284Z,98653.41
2023-02-25T04:15:31.376Z,98651.50
2023-02-25T04:17:59.107Z,98649.31
2023-02-25T04:20:29.864Z,98654.94
2023-02-25T04:22:57.591Z,98661.41
2023-02-25T04:25:25.268Z,98637.41
2023-02-25T04:27:52.894Z,98636.59
2023-02-25T04:30:20.672Z,98640.38
2023-02-25T04:32:49.753Z,98634.97
2023-02-25T04:35:17.524Z,98645.75
2023-02-25T04:37:45.537Z,98633.34
2023-02-25T04:40:15.150Z,98625.00
2023-02-25T04:42:42.878Z,98621.50
2023-02-25T04:45:11.090Z,98616.94
2023-02-25T04:47:38.780Z,98613.44
2023-02-25T04:50:08.503Z,98611.53
2023-02-25T04:52:36.162Z,98607.19
2023-02-25T04:55:03.878Z,98598.88
2023-02-25T04:57:31.603Z,98602.66
2023-02-25T04:59:59.298Z,98603.47
2023-02-25T05:02:27.019Z,98603.19
2023-02-25T05:04:54.745Z,98595.13
2023-02-25T05:07:23.866Z,98584.34
2023-02-25T05:09:51.948Z,98582.72
2023-02-25T05:12:19.775Z,98578.94
2023-02-25T05:14:47.651Z,98583.28
2023-02-25T05:17:15.874Z,98575.22
2023-02-25T05:19:43.689Z,98574.41
2023-02-25T05:22:11.566Z,98578.47
2023-02-25T05:24:40.619Z,98577.91
2023-02-25T05:27:09.257Z,98576.81
2023-02-25T05:29:37.146Z,98582.47
2023-02-25T05:32:05.156Z,98584.34
2023-02-25T05:34:33.054Z,98581.66
2023-02-25T05:37:00.661Z,98581.41
2023-02-25T05:39:28.289Z,98577.34
2023-02-25T05:41:57.308Z,98582.72
2023-02-25T05:44:25.076Z,98578.13
2023-02-25T05:46:52.748Z,98590.56
2023-02-25T05:49:20.458Z,98584.34
2023-02-25T05:51:48.091Z,98585.97
2023-02-25T05:54:15.746Z,98585.19
2023-02-25T05:56:44.402Z,98581.41
2023-02-25T05:59:13.449Z,98581.41
2023-02-25T06:01:41.931Z,98570.38
2023-02-25T06:04:09.666Z,98576.81
2023-02-25T06:06:37.679Z,98588.16
2023-02-25T06:09:05.927Z,98591.66
2023-02-25T06:11:33.626Z,98587.09
2023-02-25T06:14:01.314Z,98588.75
2023-02-25T06:16:31.906Z,98588.75
2023-02-25T06:19:01.239Z,98591.16
2023-02-25T06:21:29.060Z,98597.38
2023-02-25T06:23:56.778Z,98589.28
2023-02-25T06:26:24.685Z,98590.34
2023-02-25T06:28:52.538Z,98593.06
2023-02-25T06:31:20.374Z,98597.38
2023-02-25T06:33:50.789Z,98595.50
2023-02-25T06:36:20.744Z,98594.44
2023-02-25T06:38:48.525Z,98580.16
2023-02-25T06:41:16.770Z,98580.16
2023-02-25T06:43:44.533Z,98590.94
2023-02-25T06:46:12.819Z,98593.63
2023-02-25T06:48:40.617Z,98589.84
2023-02-25T06:51:11.616Z,98589.84
2023-02-25T06:53:39.473Z,98600.63
2023-02-25T06:56:08.441Z,98600.63
2023-02-25T06:58:36.155Z,98596.03
2023-02-25T07:01:06.406Z,98589.03
2023-02-25T07:03:34.153Z,98596.03
2023-02-25T07:06:01.893Z,98587.72
2023-02-25T07:08:31.385Z,98589.84
2023-02-25T07:11:10.453Z,98596.63
2023-02-25T07:13:38.125Z,98593.13
2023-02-25T07:16:06.159Z,98605.50
2023-02-25T07:18:34.206Z,98596.38
2023-02-25T07:21:01.830Z,98597.19
2023-02-25T07:23:29.520Z,98595.56
2023-02-25T07:25:58.629Z,98592.88
2023-02-25T07:28:26.353Z,98596.38
2023-02-25T07:30:54.182Z,98593.69
2023-02-25T07:33:21.956Z,98584.78
2023-02-25T07:35:49.562Z,98591.00
2023-02-25T07:38:18.020Z,98585.59
2023-02-25T07:40:45.743Z,98592.59
2023-02-25T07:43:16.721Z,98598.00
2023-02-25T07:45:44.424Z,98583.72
2023-02-25T07:48:12.507Z,98580.22
2023-02-25T07:50:40.145Z,98568.34
2023-02-25T07:53:09.168Z,98565.66
2023-02-25T07:55:36.957Z,98571.03
2023-02-25T07:58:07.161Z,98553.25
2023-02-25T08:00:39.249Z,98556.53
2023-02-25T08:03:06.951Z,98554.06
2023-02-25T08:05:35.364Z,98549.50
2023-02-25T08:08:02.998Z,98548.44
2023-02-25T08:10:30.619Z,98540.34
2023-02-25T08:12:58.856Z,98536.59
2023-02-25T08:15:26.565Z,98539.28
2023-02-25T08:17:56.601Z,98540.09
2023-02-25T08:20:25.373Z,98526.63
2023-02-25T08:22:53.061Z,98527.41
2023-02-25T08:25:21.535Z,98534.47
2023-02-25T08:27:49.171Z,98524.72
2023-02-25T08:30:18.885Z,98516.66
2023-02-25T08:32:46.712Z,98525.28
2023-02-25T08:35:16.609Z,98523.69
2023-02-25T08:37:45.337Z,98523.69
2023-02-25T08:40:14.676Z,98524.72
2023-02-25T08:42:42.399Z,98519.91
2023-02-25T08:45:11.032Z,98519.91
2023-02-25T08:47:38.653Z,98523.69
2023-02-25T08:50:06.835Z,98522.88
2023-02-25T08:52:36.576Z,98520.97
2023-02-25T08:55:05.055Z,98527.19
2023-02-25T08:57:33.920Z,98520.50
2023-02-25T09:00:01.654Z,98517.81
2023-02-25T09:02:30.817Z,98516.16
2023-02-25T09:04:58.477Z,98510.78
2023-02-25T09:07:26.310Z,98506.44
2023-02-25T09:09:56.210Z,98508.31
2023-02-25T09:12:24.888Z,98509.41
2023-02-25T09:14:53.385Z,98506.44
2023-02-25T09:17:21.054Z,98502.69
2023-02-25T09:19:50.019Z,98509.13
2023-02-25T09:22:19.725Z,98505.63
2023-02-25T09:24:47.490Z,98508.56
2023-02-25T09:27:17.255Z,98505.88
2023-02-25T09:29:44.970Z,98515.03
2023-02-25T09:32:18.379Z,98508.81
2023-02-25T09:34:46.599Z,98512.34
2023-02-25T09:37:15.797Z,98512.34
2023-02-25T09:39:43.671Z,98512.34
2023-02-25T09:42:11.788Z,98515.03
2023-02-25T09:44:42.340Z,98518.81
2023-02-25T09:47:11.842Z,98514.22
2023-02-25T09:49:39.737Z,98526.88
2023-02-25T09:52:09.512Z,98521.50
2023-02-25T09:54:40.612Z,98521.50
2023-02-25T09:57:09.248Z,98523.06
2023-02-25T09:59:36.976Z,98528.50
2023-02-25T10:02:07.912Z,98527.94
2023-02-25T10:04:38.938Z,98538.72
2023-02-25T10:07:08.640Z,98535.44
2023-02-25T10:09:39.203Z,98541.09
2023-02-25T10:12:10.020Z,98535.72
2023-02-25T10:14:48.973Z,98523.06
2023-02-25T10:17:20.180Z,98528.44
2023-02-25T10:19:52.950Z,98511.19
2023-02-25T10:22:29.754Z,98503.97
2023-02-25T10:25:00.742Z,98502.06
2023-02-25T10:27:30.292Z,98498.84
2023-02-25T10:30:01.598Z,98495.94
2023-02-25T10:32:32.649Z,98507.50
2023-02-25T10:35:01.004Z,98496.72
2023-02-25T10:37:31.989Z,98502.69
2023-02-25T10:39:59.989Z,98486.75
2023-02-25T10:42:28.436Z,98502.69
2023-02-25T10:44:56.187Z,98500.00
2023-02-25T10:47:27.288Z,98490.03
2023-02-25T10:50:16.305Z,98486.28
2023-02-25T10:52:56.240Z,98472.56
2023-02-25T10:55:32.672Z,98458.81
2023-02-25T10:58:02.016Z,98451.28
2023-02-25T11:00:30.077Z,98447.50
2023-02-25T11:02:58.365Z,98437.56
2023-02-25T11:05:38.118Z,98428.41
2023-02-25T11:08:07.823Z,98430.03
2023-02-25T11:10:36.309Z,98415.50
2023-02-25T11:13:06.074Z,98406.31
2023-02-25T11:15:45.279Z,98404.19
2023-02-25T11:18:18.743Z,98409.56
2023-02-25T11:20:50.708Z,98412.03
2023-02-25T11:23:23.344Z,98417.16
2023-02-25T11:25:53.828Z,98402.88
2023-02-25T11:28:25.403Z,98409.06
2023-02-25T11:30:53.212Z,98418.75
2023-02-25T11:33:23.211Z,98410.44
2023-02-25T11:35:57.138Z,98409.34
2023-02-25T11:38:26.024Z,98408.00
2023-02-25T11:40:53.669Z,98399.69
2023-02-25T11:45:57.560Z,98396.22
2023-02-25T11:48:27.024Z,98398.13
2023-02-25T11:50:58.793Z,98400.31
2023-02-25T11:53:32.156Z,98421.31
2023-02-25T11:56:02.062Z,98440.44
2023-02-25T11:58:33.108Z,98486.56
2023-02-25T12:01:01.432Z,98503.53
2023-02-25T12:03:47.832Z,98519.72
2023-02-25T12:06:22.551Z,98536.97
2023-02-25T12:08:53.002Z,98544.22
2023-02-25T12:11:40.402Z,98546.13
2023-02-25T12:14:12.918Z,98562.84
2023-02-25T12:17:01.299Z,98559.34
2023-02-25T12:19:34.893Z,98584.44
2023-02-25T12:22:17.371Z,98552.06
2023-02-25T12:24:52.436Z,98562.84
2023-02-25T12:27:47.313Z,98563.66
2023-02-25T12:30:22.654Z,98559.06
2023-02-25T12:32:56.176Z,98569.06
2023-02-25T12:35:31.826Z,98579.59
2023-02-25T12:38:23.268Z,98578.50
2023-02-25T12:41:00.961Z,98590.91
2023-02-25T12:43:31.488Z,98588.22
2023-02-25T12:46:17.194Z,98593.63
2023-02-25T12:48:51.155Z,98604.41
2023-02-25T12:51:32.981Z,98600.09
2023-02-25T12:54:04.083Z,98613.31
2023-02-25T12:56:44.041Z,98617.88
2023-02-25T12:59:13.705Z,98628.13
2023-02-25T13:01:55.288Z,98635.38
2023-02-25T13:04:39.501Z,98631.63
2023-02-25T13:07:25.183Z,98639.16
2023-02-25T13:09:56.346Z,98639.16
2023-02-25T13:12:32.195Z,98655.34
2023-02-25T13:15:02.251Z,98676.09
2023-02-25T13:17:52.144Z,98677.19
2023-02-25T13:20:22.303Z,98654.75
2023-02-25T13:22:54.076Z,98641.28
2023-02-25T13:28:11.153Z,98645.06
2023-02-25T13:30:44.797Z,98638.88
2023-02-25T13:33:22.208Z,98644.25
2023-02-25T13:35:54.760Z,98652.34
2023-02-25T13:38:29.725Z,98657.16
2023-02-25T13:41:00.283Z,98664.19
2023-02-25T13:43:48.262Z,98660.66
2023-02-25T13:46:48.706Z,98678.72
2023-02-25T13:49:34.274Z,98697.84
2023-02-25T13:52:10.416Z,98713.22
2023-02-25T13:54:43.026Z,98724.00
2023-02-25T13:57:12.986Z,98721.56
2023-02-25T13:59:48.059Z,98725.06
2023-02-25T14:02:20.332Z,98745.00
2023-02-25T14:05:02.337Z,98719.91
2023-02-25T14:07:42.869Z,98715.34
2023-02-25T14:10:29.230Z,98699.16
2023-02-25T14:13:02.245Z,98699.16
2023-02-25T14:15:34.307Z,98715.34
2023-02-25T14:18:08.751Z,98727.78
2023-02-25T14:20:40.747Z,98730.47
2023-02-25T14:23:11.831Z,98733.16
2023-02-25T14:25:41.636Z,98743.94
2023-02-25T14:28:13.402Z,98746.66
2023-02-25T14:30:44.352Z,98747.44
2023-02-25T14:33:18.395Z,98741.25
2023-02-25T14:35:57.692Z,98736.91
2023-02-25T14:38:27.730Z,98749.34
2023-02-25T14:40:57.132Z,98769.25
2023-02-25T14:43:33.379Z,98758.47
2023-02-25T14:46:02.703Z,98771.94
2023-02-25T14:48:31.285Z,98775.97
2023-02-25T14:51:05.680Z,98771.41
2023-02-25T14:53:44.247Z,98781.34
2023-02-25T14:56:20.285Z,98785.13
2023-02-25T14:58:54.981Z,98790.53
2023-02-25T15:01:43.306Z,98799.69
2023-02-25T15:04:29.444Z,98804.22
2023-02-25T15:07:05.966Z,98802.63
2023-02-25T15:10:00.503Z,98801.00
2023-02-25T15:12:34.677Z,98811.78
2023-02-25T15:15:10.265Z,98801.00
2023-02-25T15:17:57.784Z,98783.16
2023-02-25T15:20:32.965Z,98776.97
2023-02-25T15:23:10.210Z,98772.38
2023-02-25T15:25:42.156Z,98775.94
2023-02-25T15:28:28.959Z,98787.75
2023-02-25T15:31:07.095Z,98792.09
2023-02-25T15:33:35.962Z,98781.31
2023-02-25T15:36:03.758Z,98779.44
2023-02-25T15:38:44.346Z,98774.84
2023-02-25T15:41:30.038Z,98775.66
2023-02-25T15:43:59.288Z,98775.66
2023-02-25T15:46:32.389Z,98777.78
2023-02-25T15:49:06.413Z,98799.34
2023-02-25T15:51:40.997Z,98797.72
2023-02-25T15:54:16.450Z,98807.94
2023-02-25T15:56:48.121Z,98813.91
2023-02-25T15:59:35.386Z,98808.50
2023-02-25T16:02:03.069Z,98799.84
2023-02-25T16:04:46.252Z,98797.16
2023-02-25T16:07:14.713Z,98814.13
2023-02-25T16:09:44.013Z,98798.22
2023-02-25T16:12:12.776Z,98788.50
2023-02-25T16:14:41.004Z,98780.41
2023-02-25T16:17:12.521Z,98790.38
2023-02-25T16:19:40.218Z,98784.19
2023-02-25T16:22:10.215Z,98781.47
2023-02-25T16:24:42.462Z,98786.06
2023-02-25T16:27:13.778Z,98789.56
2023-02-25T16:29:46.799Z,98794.97
2023-02-25T16:32:21.882Z,98798.72
2023-02-25T16:34:55.516Z,98799.28
2023-02-25T16:37:24.846Z,98796.56
2023-02-25T16:39:52.759Z,98793.88
2023-02-25T16:42:22.689Z,98804.44
2023-02-25T16:44:56.801Z,98809.59
2023-02-25T16:47:26.260Z,98817.66
2023-02-25T16:49:54.244Z,98805.25
2023-02-25T16:52:24.597Z,98796.09
2023-02-25T16:54:54.475Z,98799.84
2023-02-25T16:57:24.797Z,98818.72
2023-02-25T16:59:52.629Z,98814.41
2023-02-25T17:02:24.682Z,98811.69
2023-02-25T17:04:52.835Z,98796.56
2023-02-25T17:07:23.370Z,98795.78
2023-02-25T17:09:51.631Z,98806.81
2023-02-25T17:12:20.106Z,98803.03
2023-02-25T17:14:50.574Z,98787.94
2023-02-25T17:17:19.497Z,98775.28
2023-02-25T17:19:49.518Z,98759.34
2023-02-25T17:22:19.562Z,98743.16
2023-02-25T17:24:48.102Z,98737.78
2023-02-25T17:27:15.812Z,98733.47
2023-02-25T17:29:44.480Z,98732.66
2023-02-25T17:32:21.735Z,98738.84
2023-02-25T17:34:50.355Z,98753.38
2023-02-25T17:37:18.026Z,98761.47
2023-02-25T17:39:45.809Z,98773.91
2023-02-25T17:42:33.264Z,98769.31
2023-02-25T17:45:01.589Z,98774.72
2023-02-25T17:47:31.796Z,98780.09
2023-02-25T17:50:00.212Z,98793.34
2023-02-25T17:52:29.195Z,98787.94
2023-02-25T17:54:59.264Z,98794.97
2023-02-25T17:57:28.258Z,98798.72
2023-02-25T17:59:57.018Z,98801.16
2023-02-25T18:02:30.464Z,98809.50
2023-02-25T18:05:16.915Z,98816.53
2023-02-25T18:07:46.605Z,98801.44
2023-02-25T18:10:29.188Z,98809.50
2023-02-25T18:12:57.606Z,98797.06
2023-02-25T18:15:25.483Z,98785.50
2023-02-25T18:17:54.295Z,98779.28
2023-02-25T18:20:28.811Z,98778.47
2023-02-25T18:22:57.290Z,98777.63
2023-02-25T18:25:31.308Z,98783.03
2023-02-25T18:28:01.208Z,98785.72
2023-02-25T18:30:29.462Z,98781.41
2023-02-25T18:32:57.479Z,98785.19
2023-02-25T18:35:26.192Z,98791.38
2023-02-25T18:37:55.987Z,98802.97
2023-02-25T18:40:25.358Z,98794.88
2023-02-25T18:42:53.055Z,98795.97
2023-02-25T18:45:21.610Z,98791.63
2023-02-25T18:47:50.377Z,98794.31
2023-02-25T18:50:18.158Z,98810.47
2023-02-25T18:52:47.587Z,98813.19
2023-02-25T18:55:19.099Z,98785.19
2023-02-25T18:57:47.706Z,98781.41
2023-02-25T19:00:18.808Z,98802.97
2023-02-25T19:02:48.323Z,98812.69
2023-02-25T19:05:16.113Z,98806.25
2023-02-25T19:07:43.870Z,98807.03
2023-02-25T19:10:14.333Z,98801.44
2023-02-25T19:12:43.404Z,98789.56
2023-02-25T19:15:15.482Z,98794.97
2023-02-25T19:17:43.152Z,98806.31
2023-02-25T19:20:11.723Z,98807.34
2023-02-25T19:22:42.773Z,98795.53
2023-02-25T19:25:12.353Z,98803.63
2023-02-25T19:27:39.979Z,98809.00
2023-02-25T19:30:13.167Z,98812.50
2023-02-25T19:32:40.884Z,98809.00
2023-02-25T19:35:10.496Z,98798.22
2023-02-25T19:37:39.039Z,98794.44
2023-02-25T19:40:10.330Z,98805.25
2023-02-25T19:42:38.844Z,98816.03
2023-02-25T19:45:06.985Z,98806.03
2023-02-25T19:47:36.020Z,98804.19
2023-02-25T19:50:04.524Z,98797.97
2023-02-25T19:52:33.320Z,98805.81
2023-02-25T19:55:01.816Z,98820.38
2023-02-25T19:57:29.561Z,98813.81
2023-02-25T19:59:57.359Z,98816.59
2023-02-25T20:02:25.935Z,98817.66
2023-02-25T20:04:54.984Z,98821.41
2023-02-25T20:07:22.739Z,98824.69
2023-02-25T20:09:51.692Z,98827.38
2023-02-25T20:12:19.307Z,98806.63
2023-02-25T20:14:46.898Z,98807.44
2023-02-25T20:17:18.697Z,98820.91
2023-02-25T20:19:47.666Z,98838.72
2023-02-25T20:22:17.140Z,98833.34
2023-02-25T20:24:46.629Z,98829.00
2023-02-25T20:27:14.342Z,98836.03
2023-02-25T20:29:42.140Z,98836.03
2023-02-25T20:32:11.374Z,98831.47
2023-02-25T20:34:39.362Z,98831.69
2023-02-25T20:37:08.692Z,98822.28
2023-02-25T20:39:44.073Z,98827.94
2023-02-25T20:42:13.611Z,98845.75
2023-02-25T20:44:41.463Z,98845.75
2023-02-25T20:47:09.234Z,98830.38
2023-02-25T20:49:39.638Z,98841.16
2023-02-25T20:52:07.529Z,98845.75
2023-02-25T20:54:37.813Z,98845.75
2023-02-25T20:57:06.860Z,98843.06
2023-02-25T20:59:35.125Z,98829.56
2023-02-25T21:02:03.683Z,98830.38
2023-02-25T21:04:31.473Z,98828.50
2023-02-25T21:06:59.202Z,98825.00
2023-02-25T21:09:27.769Z,98839.28
2023-02-25T21:11:55.408Z,98831.47
2023-02-25T21:14:24.508Z,98825.78
2023-02-25T21:16:56.810Z,98830.38
2023-02-25T21:19:24.876Z,98818.78
2023-02-25T21:21:53.405Z,98822.28
2023-02-25T21:24:21.203Z,98818.78
2023-02-25T21:26:48.944Z,98820.41
2023-02-25T21:29:17.658Z,98815.84
2023-02-25T21:31:46.836Z,98813.97
2023-02-25T21:34:14.976Z,98819.38
2023-02-25T21:36:47.670Z,98828.25
2023-02-25T21:39:15.335Z,98834.47
2023-02-25T21:41:47.700Z,98829.06
2023-02-25T21:44:15.372Z,98830.72
2023-02-25T21:46:43.940Z,98830.72
2023-02-25T21:49:12.939Z,98828.03
2023-02-25T21:51:40.592Z,98830.72
2023-02-25T21:54:09.154Z,98837.97
2023-02-25T21:56:36.808Z,98830.97
2023-02-25T21:59:06.269Z,98828.25
2023-02-25T22:01:34.935Z,98826.63
2023-02-25T22:04:02.699Z,98825.00
2023-02-25T22:06:32.696Z,98811.78
2023-02-25T22:09:00.452Z,98816.34
2023-02-25T22:11:29.703Z,98804.75
2023-02-25T22:13:57.417Z,98796.91
2023-02-25T22:16:25.577Z,98796.09
2023-02-25T22:18:54.220Z,98789.06
2023-02-25T22:21:23.351Z,98784.47
2023-02-25T22:23:52.716Z,98799.84
2023-02-25T22:26:21.892Z,98811.44
2023-02-25T22:28:49.653Z,98794.44
2023-02-25T22:31:17.980Z,98789.88
2023-02-25T22:33:46.789Z,98816.03
2023-02-25T22:36:14.708Z,98809.81
2023-02-25T22:38:42.972Z,98783.66
2023-02-25T22:41:14.356Z,98774.53
2023-02-25T22:43:42.065Z,98782.06
2023-02-25T22:46:10.842Z,98797.97
2023-02-25T22:48:38.693Z,98751.31
2023-02-25T22:51:07.324Z,98757.78
2023-02-25T22:53:35.637Z,98780.41
2023-02-25T22:56:03.363Z,98797.41
2023-02-25T22:58:33.125Z,98798.47
2023-02-25T23:01:00.724Z,98805.75
2023-02-25T23:03:28.491Z,98807.84
2023-02-25T23:05:56.892Z,98815.72
2023-02-25T23:08:24.764Z,98813.25
2023-02-25T23:10:52.420Z,98813.25
2023-02-25T23:13:20.781Z,98814.31
2023-02-25T23:15:50.305Z,98803.53
2023-02-25T23:18:19.063Z,98786.56
2023-02-25T23:20:49.316Z,98781.19
2023-02-25T23:23:17.603Z,98783.03
2023-02-25T23:25:46.684Z,98771.44
2023-02-25T23:28:14.352Z,98776.03
2023-02-25T23:30:42.032Z,98769.81
2023-02-25T23:33:12.509Z,98770.63
2023-02-25T23:35:41.461Z,98770.63
2023-02-25T23:38:09.528Z,98770.63
2023-02-25T23:40:37.279Z,98779.78
2023-02-25T23:43:05.003Z,98783.88
2023-02-25T23:45:32.885Z,98776.81
2023-02-25T23:48:00.601Z,98774.94
2023-02-25T23:50:29.770Z,98774.94
2023-02-25T23:52:57.561Z,98772.25
2023-02-25T23:55:25.704Z,98773.09
2023-02-25T23:57:53.411Z,98773.91
